Time;durP1;ratioP1;P1;durP2;ratioP2;P2;SDS_P1;SDS_P2;PMS_P1;PMS_P2;Temp;Humidity;BMP_temperature;BMP_pressure;BME280_temperature;BME280_humidity;BME280_pressure;Samples;Min_cycle;Max_cycle;Signal;HPM_P1;HPM_P2
2023/03/24 00:01:32;;;;;;;23.77;17.15;;;;;;;;;;5039152;28;20049;-88
2023/03/24 00:07:22;;;;;;;26.42;18.55;;;;;;;;;;5039027;28;20036;-87
2023/03/24 00:09:48;;;;;;;32.00;19.77;;;;;;;;;;5038924;28;20032;-88
2023/03/24 00:12:17;;;;;;;26.73;18.13;;;;;;;;;;5039204;28;20022;-87
2023/03/24 00:14:47;;;;;;;24.48;17.10;;;;;;;;;;5037813;28;20076;-87
2023/03/24 00:17:13;;;;;;;21.67;15.50;;;;;;;;;;5037843;28;20053;-87
2023/03/24 00:22:47;;;;;;;18.52;14.40;;;;;;;;;;5038363;28;20048;-88
2023/03/24 00:25:13;;;;;;;21.42;14.40;;;;;;;;;;5038664;28;20033;-89
2023/03/24 00:27:40;;;;;;;19.80;13.95;;;;;;;;;;5038994;28;20330;-89
2023/03/24 00:30:08;;;;;;;17.17;13.23;;;;;;;;;;5038848;28;20100;-89
2023/03/24 00:32:39;;;;;;;17.05;13.15;;;;;;;;;;5038747;28;20018;-89
2023/03/24 00:35:23;;;;;;;21.40;14.27;;;;;;;;;;5037604;28;20037;-89
2023/03/24 00:37:50;;;;;;;18.90;14.18;;;;;;;;;;5038564;28;20041;-89
2023/03/24 00:40:18;;;;;;;18.88;14.05;;;;;;;;;;5037495;28;20029;-89
2023/03/24 00:42:46;;;;;;;19.80;14.45;;;;;;;;;;5038740;28;20100;-88
2023/03/24 00:45:18;;;;;;;17.20;13.82;;;;;;;;;;5037694;28;20359;-87
2023/03/24 00:47:44;;;;;;;22.52;14.73;;;;;;;;;;5037765;28;20515;-88
2023/03/24 00:50:34;;;;;;;22.88;14.50;;;;;;;;;;5037643;28;20029;-88
2023/03/24 00:53:00;;;;;;;20.77;14.48;;;;;;;;;;5038221;28;20491;-88
2023/03/24 00:55:27;;;;;;;20.60;14.57;;;;;;;;;;5038238;28;20029;-89
2023/03/24 00:57:53;;;;;;;19.38;14.95;;;;;;;;;;5038007;28;20427;-90
2023/03/24 01:00:24;;;;;;;20.55;14.88;;;;;;;;;;5038249;28;20112;-89
2023/03/24 01:02:54;;;;;;;21.00;14.63;;;;;;;;;;5037930;28;20124;-89
2023/03/24 01:05:24;;;;;;;19.88;14.40;;;;;;;;;;5038141;28;20030;-87
2023/03/24 01:07:55;;;;;;;21.77;15.02;;;;;;;;;;5036936;28;20116;-88
2023/03/24 01:10:25;;;;;;;21.83;14.50;;;;;;;;;;5036950;28;20033;-88
2023/03/24 01:12:51;;;;;;;19.50;13.85;;;;;;;;;;5036938;28;20018;-88
2023/03/24 01:15:18;;;;;;;20.50;14.50;;;;;;;;;;5032322;28;20033;-88
2023/03/24 01:17:47;;;;;;;22.35;15.00;;;;;;;;;;5037357;28;20034;-88
2023/03/24 01:20:34;;;;;;;18.73;14.50;;;;;;;;;;5038122;28;20029;-88
2023/03/24 01:23:01;;;;;;;20.45;14.48;;;;;;;;;;5037746;28;20044;-88
2023/03/24 01:25:28;;;;;;;21.60;15.00;;;;;;;;;;5037617;28;20038;-88
2023/03/24 01:27:54;;;;;;;23.67;15.60;;;;;;;;;;5036936;28;20029;-88
2023/03/24 01:30:22;;;;;;;21.48;15.32;;;;;;;;;;5038213;28;20022;-88
2023/03/24 01:32:48;;;;;;;19.92;14.95;;;;;;;;;;5036825;28;20400;-88
2023/03/24 01:35:15;;;;;;;19.02;14.43;;;;;;;;;;5036929;28;20080;-89
2023/03/24 01:37:41;;;;;;;22.48;15.25;;;;;;;;;;5036491;28;20398;-88
2023/03/24 01:40:08;;;;;;;19.55;14.70;;;;;;;;;;5036835;28;20029;-89
2023/03/24 01:42:35;;;;;;;22.13;14.40;;;;;;;;;;5036551;28;20025;-88
2023/03/24 01:45:21;;;;;;;19.80;15.25;;;;;;;;;;5036492;28;20025;-87
2023/03/24 01:47:47;;;;;;;21.10;14.70;;;;;;;;;;5036734;28;20423;-88
2023/03/24 01:53:17;;;;;;;21.80;15.27;;;;;;;;;;5037657;28;20103;-88
2023/03/24 01:55:46;;;;;;;21.33;14.80;;;;;;;;;;5037433;28;20025;-88
2023/03/24 01:58:13;;;;;;;22.23;14.55;;;;;;;;;;5037592;28;20026;-88
2023/03/24 02:00:40;;;;;;;18.13;14.18;;;;;;;;;;5036290;28;20080;-88
2023/03/24 02:03:13;;;;;;;21.40;15.07;;;;;;;;;;5040243;28;20052;-87
2023/03/24 02:05:40;;;;;;;28.10;15.57;;;;;;;;;;5041494;28;20033;-88
2023/03/24 02:08:16;;;;;;;20.38;15.38;;;;;;;;;;5041366;28;20401;-89
2023/03/24 02:10:43;;;;;;;21.92;15.10;;;;;;;;;;5041610;28;20108;-89
2023/03/24 02:13:10;;;;;;;22.40;15.95;;;;;;;;;;5040768;28;20089;-88
2023/03/24 02:15:41;;;;;;;26.73;16.13;;;;;;;;;;5039905;28;20120;-89
2023/03/24 02:18:17;;;;;;;23.48;15.43;;;;;;;;;;5041041;28;20041;-88
2023/03/24 02:20:57;;;;;;;20.77;15.95;;;;;;;;;;5041038;28;20083;-88
2023/03/24 02:23:31;;;;;;;21.42;15.50;;;;;;;;;;5039968;28;20052;-87
2023/03/24 02:26:06;;;;;;;23.58;15.25;;;;;;;;;;5040189;28;20041;-87
2023/03/24 02:28:38;;;;;;;23.33;16.88;;;;;;;;;;5041066;28;20017;-87
2023/03/24 02:31:05;;;;;;;;;;;;;;;;;;5040578;28;20473;-89
2023/03/24 02:33:34;;;;;;;23.67;15.70;;;;;;;;;;5040781;28;19986;-88
2023/03/24 02:36:14;;;;;;;21.65;16.42;;;;;;;;;;5040965;28;20030;-88
2023/03/24 02:38:44;;;;;;;25.80;17.45;;;;;;;;;;5041029;28;20029;-87
2023/03/24 02:41:13;;;;;;;23.27;16.92;;;;;;;;;;5041051;28;20024;-88
2023/03/24 02:43:50;;;;;;;24.05;16.45;;;;;;;;;;5040968;28;20293;-88
2023/03/24 02:46:32;;;;;;;23.55;15.85;;;;;;;;;;5040558;28;20037;-88
2023/03/24 02:49:07;;;;;;;24.73;16.67;;;;;;;;;;5040554;28;20021;-89
2023/03/24 02:51:34;;;;;;;23.52;16.92;;;;;;;;;;5040492;28;20037;-88
2023/03/24 02:54:00;;;;;;;24.52;17.25;;;;;;;;;;5040472;28;20452;-90
2023/03/24 02:56:28;;;;;;;26.30;17.77;;;;;;;;;;5039511;28;20026;-89
2023/03/24 02:58:59;;;;;;;22.48;17.23;;;;;;;;;;5040254;28;20060;-89
2023/03/24 03:01:30;;;;;;;23.40;17.33;;;;;;;;;;5040802;28;20071;-89
2023/03/24 03:04:16;;;;;;;23.08;17.00;;;;;;;;;;5040624;28;20025;-89
2023/03/24 03:06:50;;;;;;;22.77;16.83;;;;;;;;;;5040181;28;20026;-89
2023/03/24 03:09:17;;;;;;;25.27;16.92;;;;;;;;;;5040483;28;20036;-89
2023/03/24 03:11:46;;;;;;;26.25;17.45;;;;;;;;;;5039519;28;20021;-90
2023/03/24 03:14:15;;;;;;;24.05;16.92;;;;;;;;;;5039135;28;20017;-89
2023/03/24 03:17:03;;;;;;;24.80;17.80;;;;;;;;;;5040260;28;20029;-89
2023/03/24 03:22:37;;;;;;;24.77;16.67;;;;;;;;;;5039798;28;20063;-87
2023/03/24 03:25:03;;;;;;;25.27;17.30;;;;;;;;;;5040038;28;20029;-86
2023/03/24 03:27:37;;;;;;;25.15;17.75;;;;;;;;;;5039793;28;20139;-86
2023/03/24 03:30:07;;;;;;;23.25;16.48;;;;;;;;;;5039712;28;20048;-86
2023/03/24 03:32:35;;;;;;;25.20;17.63;;;;;;;;;;5040027;28;20037;-87
2023/03/24 03:35:21;;;;;;;26.45;16.90;;;;;;;;;;5038721;28;20025;-86
2023/03/24 03:37:51;;;;;;;23.55;17.60;;;;;;;;;;5039390;28;20047;-86
2023/03/24 03:40:20;;;;;;;26.05;17.55;;;;;;;;;;5039475;28;20129;-87
2023/03/24 03:42:46;;;;;;;26.52;17.08;;;;;;;;;;5039519;28;20112;-87
2023/03/24 03:45:13;;;;;;;25.15;17.60;;;;;;;;;;5038561;28;20048;-87
2023/03/24 03:47:39;;;;;;;22.98;16.38;;;;;;;;;;5039728;28;20018;-87
2023/03/24 03:50:07;;;;;;;24.17;17.45;;;;;;;;;;5039513;28;20036;-89
2023/03/24 03:52:33;;;;;;;21.98;16.10;;;;;;;;;;5038577;28;20033;-89
2023/03/24 03:55:00;;;;;;;27.48;19.02;;;;;;;;;;5039248;28;20105;-89
2023/03/24 03:57:26;;;;;;;51.70;31.40;;;;;;;;;;5038655;28;20025;-88
2023/03/24 03:59:52;;;;;;;56.15;37.40;;;;;;;;;;5038974;28;20430;-86
2023/03/24 04:02:27;;;;;;;82.25;53.63;;;;;;;;;;5038304;28;20057;-86
2023/03/24 04:05:06;;;;;;;91.65;50.08;;;;;;;;;;5039101;28;20549;-86
2023/03/24 04:08:10;;;;;;;65.25;35.55;;;;;;;;;;5039071;28;20025;-86
2023/03/24 04:10:46;;;;;;;47.40;28.48;;;;;;;;;;5037478;28;20033;-86
2023/03/24 04:13:20;;;;;;;43.03;24.52;;;;;;;;;;5020704;28;20034;-86
2023/03/24 04:15:57;;;;;;;36.75;24.65;;;;;;;;;;5037219;28;20435;-86
2023/03/24 04:18:35;;;;;;;34.38;21.40;;;;;;;;;;5036858;28;20041;-86
2023/03/24 04:24:26;;;;;;;43.53;26.95;;;;;;;;;;5017651;28;20048;-86
2023/03/24 04:27:08;;;;;;;36.47;22.95;;;;;;;;;;5017348;28;20461;-87
2023/03/24 04:29:41;;;;;;;32.05;20.30;;;;;;;;;;5000916;28;20026;-86
2023/03/24 04:32:13;;;;;;;29.33;19.90;;;;;;;;;;5016713;28;20034;-86
2023/03/24 04:35:01;;;;;;;28.13;18.77;;;;;;;;;;4997451;28;20034;-87
2023/03/24 04:37:36;;;;;;;27.88;18.75;;;;;;;;;;4997627;28;20081;-87
2023/03/24 04:40:04;;;;;;;29.95;19.27;;;;;;;;;;5014833;28;20371;-88
2023/03/24 04:42:36;;;;;;;28.13;19.00;;;;;;;;;;5018499;28;20124;-88
2023/03/24 04:45:03;;;;;;;31.63;20.80;;;;;;;;;;5018946;28;20047;-88
2023/03/24 04:47:32;;;;;;;34.03;21.15;;;;;;;;;;5017617;28;20032;-88
2023/03/24 04:53:15;;;;;;;31.60;20.50;;;;;;;;;;4999083;28;20041;-87
2023/03/24 04:55:44;;;;;;;26.52;18.15;;;;;;;;;;4999025;28;20093;-87
2023/03/24 04:58:10;;;;;;;29.40;18.30;;;;;;;;;;5004987;28;20037;-87
2023/03/24 05:00:36;;;;;;;24.35;17.35;;;;;;;;;;5017234;28;20030;-87
2023/03/24 05:03:03;;;;;;;25.00;17.45;;;;;;;;;;5006714;28;20030;-87
2023/03/24 05:08:33;;;;;;;39.38;19.73;;;;;;;;;;5018290;28;20036;-86
2023/03/24 05:10:59;;;;;;;40.65;20.90;;;;;;;;;;5018364;28;20018;-88
2023/03/24 05:13:25;;;;;;;38.35;19.70;;;;;;;;;;5018133;28;20073;-88
2023/03/24 05:15:52;;;;;;;26.50;18.25;;;;;;;;;;5018312;28;20030;-87
2023/03/24 05:18:19;;;;;;;31.13;18.85;;;;;;;;;;5003331;28;20022;-89
2023/03/24 05:20:45;;;;;;;28.05;18.25;;;;;;;;;;5018427;28;20037;-88
2023/03/24 05:23:11;;;;;;;25.65;18.45;;;;;;;;;;5029640;28;20041;-88
2023/03/24 05:25:37;;;;;;;25.73;17.40;;;;;;;;;;5037819;28;20029;-88
2023/03/24 05:28:03;;;;;;;20.70;15.30;;;;;;;;;;5036952;28;20030;-89
2023/03/24 05:30:30;;;;;;;26.63;16.75;;;;;;;;;;5037969;28;20025;-88
2023/03/24 05:32:56;;;;;;;23.73;16.63;;;;;;;;;;5037644;28;20323;-88
2023/03/24 05:41:48;;;;;;;23.48;16.60;;;;;;;;;;5037930;28;20024;-88
2023/03/24 05:44:14;;;;;;;25.00;17.38;;;;;;;;;;5036605;28;20060;-88
2023/03/24 05:46:41;;;;;;;25.30;17.40;;;;;;;;;;5036661;28;20017;-88
2023/03/24 05:52:11;;;;;;;25.15;17.83;;;;;;;;;;5037635;28;20367;-88
2023/03/24 05:54:38;;;;;;;28.30;18.80;;;;;;;;;;5036690;28;20060;-88
2023/03/24 05:57:06;;;;;;;31.25;18.35;;;;;;;;;;5037846;28;20044;-88
2023/03/24 05:59:34;;;;;;;27.13;18.33;;;;;;;;;;5037459;28;20034;-88
2023/03/24 06:02:00;;;;;;;26.15;18.27;;;;;;;;;;5037163;28;20477;-87
2023/03/24 06:04:29;;;;;;;30.50;17.92;;;;;;;;;;5037627;28;20040;-87
2023/03/24 06:06:57;;;;;;;28.33;17.45;;;;;;;;;;5037516;28;20032;-87
2023/03/24 06:09:34;;;;;;;24.35;17.63;;;;;;;;;;5037589;28;20048;-88
2023/03/24 06:12:04;;;;;;;26.80;17.63;;;;;;;;;;5037715;28;20101;-89
2023/03/24 06:14:30;;;;;;;24.75;17.38;;;;;;;;;;5037732;28;20422;-89
2023/03/24 06:16:58;;;;;;;25.08;17.48;;;;;;;;;;5037198;28;20289;-88
2023/03/24 06:19:32;;;;;;;23.92;16.70;;;;;;;;;;5036468;28;20076;-88
2023/03/24 06:22:01;;;;;;;25.45;16.85;;;;;;;;;;5036657;28;20022;-88
2023/03/24 06:24:28;;;;;;;23.73;17.10;;;;;;;;;;5036955;28;20030;-88
2023/03/24 06:27:01;;;;;;;21.25;16.10;;;;;;;;;;5037514;28;20355;-87
2023/03/24 06:29:28;;;;;;;22.45;16.63;;;;;;;;;;5036330;28;20021;-88
2023/03/24 06:31:54;;;;;;;22.45;17.15;;;;;;;;;;5037431;28;20021;-88
2023/03/24 06:34:37;;;;;;;23.00;16.95;;;;;;;;;;5037376;28;20020;-88
2023/03/24 06:37:04;;;;;;;21.00;15.60;;;;;;;;;;5037047;28;20033;-88
2023/03/24 06:39:30;;;;;;;23.40;15.68;;;;;;;;;;5036070;28;20029;-87
2023/03/24 06:41:56;;;;;;;23.30;16.35;;;;;;;;;;5036765;28;20022;-87
2023/03/24 06:44:22;;;;;;;25.10;17.63;;;;;;;;;;5036962;28;20044;-87
2023/03/24 06:46:48;;;;;;;21.17;16.63;;;;;;;;;;5036377;28;20061;-87
2023/03/24 06:49:14;;;;;;;22.00;16.88;;;;;;;;;;5038144;28;20465;-86
2023/03/24 06:51:59;;;;;;;27.65;16.67;;;;;;;;;;5039421;28;20433;-87
2023/03/24 06:54:25;;;;;;;20.23;16.25;;;;;;;;;;5040376;28;20025;-86
2023/03/24 06:56:52;;;;;;;31.40;19.50;;;;;;;;;;5040680;28;20100;-86
2023/03/24 06:59:22;;;;;;;25.67;18.17;;;;;;;;;;5039688;28;20045;-87
2023/03/24 07:01:49;;;;;;;27.48;17.02;;;;;;;;;;5039260;28;20018;-87
2023/03/24 07:04:15;;;;;;;20.90;16.27;;;;;;;;;;5040607;28;20025;-86
2023/03/24 07:06:41;;;;;;;24.40;16.55;;;;;;;;;;5040045;28;20099;-86
2023/03/24 07:09:08;;;;;;;27.73;16.90;;;;;;;;;;5040578;28;20049;-86
2023/03/24 07:11:34;;;;;;;28.17;18.67;;;;;;;;;;5040514;28;20279;-87
2023/03/24 07:14:00;;;;;;;25.60;16.13;;;;;;;;;;5039163;28;20494;-87
2023/03/24 07:16:26;;;;;;;24.00;16.45;;;;;;;;;;5039350;28;20432;-87
2023/03/24 07:18:52;;;;;;;24.52;16.13;;;;;;;;;;5040302;28;20105;-86
2023/03/24 07:21:36;;;;;;;25.25;16.92;;;;;;;;;;5039024;28;20030;-87
2023/03/24 07:24:03;;;;;;;28.80;16.48;;;;;;;;;;5038950;28;20045;-87
2023/03/24 07:26:29;;;;;;;28.35;16.90;;;;;;;;;;5039714;28;20037;-87
2023/03/24 07:28:55;;;;;;;26.77;16.83;;;;;;;;;;5039306;28;20029;-87
2023/03/24 07:31:23;;;;;;;21.83;16.25;;;;;;;;;;5038946;28;20052;-87
2023/03/24 07:33:49;;;;;;;21.02;16.45;;;;;;;;;;5039954;28;20026;-87
2023/03/24 07:39:19;;;;;;;23.65;17.13;;;;;;;;;;5020381;28;20236;-86
2023/03/24 07:41:46;;;;;;;25.73;17.88;;;;;;;;;;5019140;28;20112;-87
2023/03/24 07:44:12;;;;;;;24.83;16.88;;;;;;;;;;5019601;28;20037;-86
2023/03/24 07:46:38;;;;;;;23.65;18.25;;;;;;;;;;5037281;28;20109;-86
2023/03/24 07:49:05;;;;;;;25.33;18.38;;;;;;;;;;5039376;28;20043;-86
2023/03/24 07:51:31;;;;;;;25.13;18.50;;;;;;;;;;5038338;28;20076;-87
2023/03/24 07:53:57;;;;;;;26.83;18.00;;;;;;;;;;5039365;28;20061;-87
2023/03/24 07:56:23;;;;;;;28.77;19.38;;;;;;;;;;5039198;28;20049;-86
2023/03/24 07:58:50;;;;;;;26.90;17.52;;;;;;;;;;5039126;28;20033;-86
2023/03/24 08:01:16;;;;;;;26.52;18.13;;;;;;;;;;5037924;28;20064;-86
2023/03/24 08:03:43;;;;;;;25.70;17.88;;;;;;;;;;5038461;28;20048;-86
2023/03/24 08:06:09;;;;;;;28.05;19.00;;;;;;;;;;5039314;28;20064;-86
2023/03/24 08:08:35;;;;;;;24.67;17.67;;;;;;;;;;5038013;28;20028;-87
2023/03/24 08:11:02;;;;;;;23.05;18.65;;;;;;;;;;5038880;28;20025;-86
2023/03/24 08:13:29;;;;;;;25.63;17.13;;;;;;;;;;5037911;28;20420;-87
2023/03/24 08:15:56;;;;;;;22.73;16.80;;;;;;;;;;5037977;28;20412;-86
2023/03/24 08:18:23;;;;;;;25.85;18.15;;;;;;;;;;5032585;28;20022;-86
2023/03/24 08:21:05;;;;;;;31.05;18.02;;;;;;;;;;5019188;28;20034;-85
2023/03/24 08:23:32;;;;;;;27.52;18.52;;;;;;;;;;5018266;28;20068;-85
2023/03/24 08:25:58;;;;;;;22.38;16.90;;;;;;;;;;5025736;28;20065;-87
2023/03/24 08:28:24;;;;;;;24.45;17.65;;;;;;;;;;5038786;28;20024;-87
2023/03/24 08:30:51;;;;;;;26.50;16.98;;;;;;;;;;5038609;28;20021;-87
2023/03/24 08:33:17;;;;;;;29.17;16.75;;;;;;;;;;5021040;28;20129;-87
2023/03/24 08:35:45;;;;;;;25.20;17.10;;;;;;;;;;5017966;28;20037;-86
2023/03/24 08:38:11;;;;;;;26.33;15.93;;;;;;;;;;5018871;28;20076;-85
2023/03/24 08:40:39;;;;;;;23.73;17.15;;;;;;;;;;5026368;28;20026;-84
2023/03/24 08:43:09;;;;;;;24.48;16.15;;;;;;;;;;5037705;28;20029;-84
2023/03/24 08:45:36;;;;;;;30.15;17.17;;;;;;;;;;5019359;28;20049;-84
2023/03/24 08:48:03;;;;;;;23.50;16.23;;;;;;;;;;5032659;28;20125;-85
2023/03/24 08:50:33;;;;;;;28.05;14.55;;;;;;;;;;5018093;28;20392;-83
2023/03/24 08:52:59;;;;;;;23.05;13.98;;;;;;;;;;5029658;28;20487;-83
2023/03/24 08:55:26;;;;;;;16.98;12.95;;;;;;;;;;5038255;28;20033;-85
2023/03/24 08:57:53;;;;;;;19.08;12.85;;;;;;;;;;5037900;28;20026;-85
2023/03/24 09:00:19;;;;;;;22.05;12.75;;;;;;;;;;5038176;28;20025;-86
2023/03/24 09:02:47;;;;;;;15.25;12.10;;;;;;;;;;5031465;28;20021;-83
2023/03/24 09:05:14;;;;;;;17.50;12.52;;;;;;;;;;5017704;28;20168;-84
2023/03/24 09:07:40;;;;;;;16.33;12.90;;;;;;;;;;5025773;28;20404;-83
2023/03/24 09:10:07;;;;;;;15.35;11.88;;;;;;;;;;5037820;28;20036;-84
2023/03/24 09:12:34;;;;;;;22.63;11.80;;;;;;;;;;5037270;28;20084;-84
2023/03/24 09:15:00;;;;;;;15.52;12.02;;;;;;;;;;5037294;28;20025;-83
2023/03/24 09:17:26;;;;;;;16.48;11.18;;;;;;;;;;5036405;28;20064;-83
2023/03/24 09:20:20;;;;;;;18.98;11.45;;;;;;;;;;5037328;28;20033;-83
2023/03/24 09:22:47;;;;;;;15.43;10.70;;;;;;;;;;5037246;28;20042;-83
2023/03/24 09:25:19;;;;;;;15.02;10.63;;;;;;;;;;5036121;28;20103;-83
2023/03/24 09:27:46;;;;;;;19.67;11.82;;;;;;;;;;5037202;28;20219;-83
2023/03/24 09:30:17;;;;;;;13.50;9.90;;;;;;;;;;5037117;28;20021;-82
2023/03/24 09:32:44;;;;;;;15.77;9.98;;;;;;;;;;5037321;28;20021;-82
2023/03/24 09:35:10;;;;;;;13.48;10.18;;;;;;;;;;5037301;28;20026;-83
2023/03/24 09:37:37;;;;;;;12.18;9.77;;;;;;;;;;5037391;28;20021;-83
2023/03/24 09:40:04;;;;;;;18.30;9.73;;;;;;;;;;5037313;28;20143;-83
2023/03/24 09:42:36;;;;;;;13.32;9.20;;;;;;;;;;5037352;28;20033;-83
2023/03/24 09:45:07;;;;;;;12.20;8.23;;;;;;;;;;5037010;28;20032;-83
2023/03/24 09:47:42;;;;;;;10.95;8.38;;;;;;;;;;5036124;28;20022;-83
2023/03/24 09:50:16;;;;;;;15.88;9.13;;;;;;;;;;5037155;28;20358;-83
2023/03/24 09:52:43;;;;;;;11.05;8.05;;;;;;;;;;5037097;28;20026;-83
2023/03/24 09:55:16;;;;;;;13.63;8.05;;;;;;;;;;5036012;28;20452;-83
2023/03/24 09:57:45;;;;;;;9.27;7.22;;;;;;;;;;5036964;28;20415;-83
2023/03/24 10:00:26;;;;;;;14.05;7.65;;;;;;;;;;5037194;28;20029;-83
2023/03/24 10:02:54;;;;;;;12.48;6.78;;;;;;;;;;5037037;28;20045;-83
2023/03/24 10:05:24;;;;;;;11.63;7.72;;;;;;;;;;5036179;28;20026;-84
2023/03/24 10:07:56;;;;;;;11.32;6.57;;;;;;;;;;5036531;28;20420;-84
2023/03/24 10:10:26;;;;;;;11.07;6.80;;;;;;;;;;5037300;28;20466;-85
2023/03/24 10:12:55;;;;;;;19.27;7.35;;;;;;;;;;5037423;28;20100;-86
2023/03/24 10:15:30;;;;;;;13.57;6.95;;;;;;;;;;5037094;28;20037;-85
2023/03/24 10:18:08;;;;;;;9.25;6.18;;;;;;;;;;5037391;28;20025;-85
2023/03/24 10:20:52;;;;;;;7.60;6.45;;;;;;;;;;5036037;28;20029;-85
2023/03/24 10:23:34;;;;;;;9.85;6.25;;;;;;;;;;5037251;28;20105;-85
2023/03/24 10:26:00;;;;;;;10.90;5.78;;;;;;;;;;5039932;28;20040;-85
2023/03/24 10:28:31;;;;;;;11.40;7.00;;;;;;;;;;5041275;28;20034;-85
2023/03/24 10:31:00;;;;;;;7.00;4.63;;;;;;;;;;5041147;28;20100;-86
2023/03/24 10:33:27;;;;;;;8.68;5.07;;;;;;;;;;5041090;28;20026;-85
2023/03/24 10:36:06;;;;;;;8.93;4.97;;;;;;;;;;5041008;28;20029;-85
2023/03/24 10:38:33;;;;;;;6.25;4.72;;;;;;;;;;5040753;28;20022;-84
2023/03/24 10:41:00;;;;;;;8.07;4.80;;;;;;;;;;5039809;28;20041;-90
2023/03/24 10:43:27;;;;;;;9.18;4.40;;;;;;;;;;5040660;28;20032;-81
2023/03/24 10:45:54;;;;;;;10.32;5.28;;;;;;;;;;5040456;28;20029;-84
2023/03/24 10:48:41;;;;;;;13.60;5.25;;;;;;;;;;5039917;28;20025;-86
2023/03/24 10:51:09;;;;;;;8.98;5.45;;;;;;;;;;5040655;28;20112;-86
2023/03/24 10:53:36;;;;;;;7.57;4.88;;;;;;;;;;5040924;28;20348;-86
2023/03/24 10:56:02;;;;;;;7.97;4.60;;;;;;;;;;5040479;28;20434;-85
2023/03/24 10:58:39;;;;;;;6.80;4.70;;;;;;;;;;5040025;28;20435;-86
2023/03/24 11:01:38;;;;;;;9.95;4.80;;;;;;;;;;5039584;28;20034;-87
2023/03/24 11:04:06;;;;;;;6.43;4.65;;;;;;;;;;5018895;28;20045;-86
2023/03/24 11:06:32;;;;;;;8.60;4.40;;;;;;;;;;5002245;28;20034;-85
2023/03/24 11:09:32;;;;;;;7.90;4.30;;;;;;;;;;5018782;28;20428;-85
2023/03/24 11:12:04;;;;;;;5.93;4.18;;;;;;;;;;4979648;28;20373;-89
2023/03/24 11:14:33;;;;;;;7.75;4.57;;;;;;;;;;4979418;28;20056;-85
2023/03/24 11:17:20;;;;;;;7.97;4.97;;;;;;;;;;4979441;28;20054;-84
2023/03/24 11:19:52;;;;;;;8.60;4.40;;;;;;;;;;4979320;28;20441;-84
2023/03/24 11:25:36;;;;;;;5.22;4.13;;;;;;;;;;4979453;28;20054;-87
2023/03/24 11:28:07;;;;;;;6.68;4.05;;;;;;;;;;4979333;28;20426;-86
2023/03/24 11:30:35;;;;;;;7.83;4.70;;;;;;;;;;4979364;28;20027;-86
2023/03/24 11:33:03;;;;;;;7.95;4.80;;;;;;;;;;4976726;28;20062;-84
2023/03/24 11:35:30;;;;;;;12.00;5.88;;;;;;;;;;4978134;28;20425;-86
2023/03/24 11:37:56;;;;;;;9.95;4.90;;;;;;;;;;4971631;28;20042;-87
2023/03/24 11:40:24;;;;;;;12.02;5.57;;;;;;;;;;4987280;28;20042;-87
2023/03/24 11:43:01;;;;;;;8.70;4.55;;;;;;;;;;5000386;28;20030;-89
2023/03/24 11:45:41;;;;;;;7.75;4.57;;;;;;;;;;5002249;28;20026;-86
2023/03/24 11:48:19;;;;;;;7.30;4.40;;;;;;;;;;5022469;28;20474;-89
2023/03/24 11:50:46;;;;;;;10.88;4.85;;;;;;;;;;5037977;28;20048;-86
2023/03/24 11:53:17;;;;;;;6.90;4.50;;;;;;;;;;5031446;28;20032;-84
2023/03/24 11:55:48;;;;;;;8.02;5.50;;;;;;;;;;5021339;28;20061;-84
2023/03/24 11:58:30;;;;;;;7.73;5.00;;;;;;;;;;5029739;28;20029;-83
2023/03/24 12:01:00;;;;;;;8.10;5.05;;;;;;;;;;5037910;28;20072;-84
2023/03/24 12:03:44;;;;;;;9.85;5.22;;;;;;;;;;5038898;28;20048;-83
2023/03/24 12:06:10;;;;;;;7.85;4.57;;;;;;;;;;5036475;28;20081;-83
2023/03/24 12:08:37;;;;;;;5.68;4.28;;;;;;;;;;5019030;28;20030;-83
2023/03/24 12:11:10;;;;;;;10.15;5.13;;;;;;;;;;5029205;28;20489;-83
2023/03/24 12:13:41;;;;;;;7.75;4.35;;;;;;;;;;5038756;28;20044;-84
2023/03/24 12:16:28;;;;;;;10.95;4.40;;;;;;;;;;5037013;28;20108;-85
2023/03/24 12:19:06;;;;;;;7.32;4.30;;;;;;;;;;4978075;28;20049;-85
2023/03/24 12:21:44;;;;;;;5.28;4.00;;;;;;;;;;4977961;28;20046;-85
2023/03/24 12:24:28;;;;;;;7.85;4.38;;;;;;;;;;4977458;28;20470;-84
2023/03/24 12:26:57;;;;;;;13.18;4.40;;;;;;;;;;4978253;28;20065;-85
2023/03/24 12:29:36;;;;;;;7.22;4.40;;;;;;;;;;4977557;28;20329;-85
2023/03/24 12:32:34;;;;;;;9.13;4.45;;;;;;;;;;4978141;28;20027;-83
2023/03/24 12:35:18;;;;;;;15.43;5.07;;;;;;;;;;4944486;29;20438;-83
2023/03/24 12:38:03;;;;;;;7.65;4.10;;;;;;;;;;4923352;29;20036;-83
2023/03/24 12:40:32;;;;;;;8.38;4.38;;;;;;;;;;4950523;29;20318;-85
2023/03/24 12:43:11;;;;;;;7.10;4.38;;;;;;;;;;4943256;29;20137;-85
2023/03/24 12:45:56;;;;;;;6.75;4.30;;;;;;;;;;4943225;28;20106;-84
2023/03/24 12:48:25;;;;;;;7.97;4.75;;;;;;;;;;4958400;29;20023;-84
2023/03/24 12:51:09;;;;;;;9.40;4.35;;;;;;;;;;4958159;28;20039;-85
2023/03/24 12:53:40;;;;;;;11.27;5.03;;;;;;;;;;4958147;29;20090;-83
2023/03/24 12:56:08;;;;;;;;;;;;;;;;;;4964180;28;20034;-85
2023/03/24 12:59:01;;;;;;;11.75;4.88;;;;;;;;;;5007399;28;19906;-84
2023/03/24 13:01:37;;;;;;;9.55;5.00;;;;;;;;;;5016302;28;20513;-82
2023/03/24 13:04:16;;;;;;;8.43;5.35;;;;;;;;;;5016528;28;20046;-85
2023/03/24 13:06:45;;;;;;;13.32;7.35;;;;;;;;;;4999467;28;20026;-85
2023/03/24 13:09:30;;;;;;;14.40;6.93;;;;;;;;;;5016622;28;20026;-84
2023/03/24 13:12:08;;;;;;;10.65;5.53;;;;;;;;;;5036459;28;20451;-85
2023/03/24 13:14:42;;;;;;;10.70;5.22;;;;;;;;;;5036072;28;20323;-85
2023/03/24 13:17:14;;;;;;;13.35;9.07;;;;;;;;;;5019530;28;20033;-85
2023/03/24 13:19:41;;;;;;;8.27;5.25;;;;;;;;;;5035925;28;20488;-85
2023/03/24 13:22:12;;;;;;;13.10;6.72;;;;;;;;;;5035553;28;20514;-85
2023/03/24 13:24:38;;;;;;;15.13;6.45;;;;;;;;;;5035094;28;20048;-81
2023/03/24 13:27:34;;;;;;;14.68;5.75;;;;;;;;;;5035326;28;20045;-83
2023/03/24 13:30:10;;;;;;;9.35;4.07;;;;;;;;;;4996023;28;20057;-83
2023/03/24 13:32:40;;;;;;;13.30;5.75;;;;;;;;;;4996434;28;20049;-83
2023/03/24 13:35:06;;;;;;;7.18;4.28;;;;;;;;;;4979533;28;20042;-85
2023/03/24 13:37:36;;;;;;;10.23;5.43;;;;;;;;;;4975434;28;20038;-83
2023/03/24 13:40:06;;;;;;;19.85;8.18;;;;;;;;;;4960412;28;20429;-83
2023/03/24 13:42:35;;;;;;;10.45;5.53;;;;;;;;;;4976678;28;20031;-83
2023/03/24 13:45:05;;;;;;;7.25;4.18;;;;;;;;;;4976630;28;20050;-84
2023/03/24 13:47:56;;;;;;;10.80;6.10;;;;;;;;;;4961799;28;20043;-83
2023/03/24 13:50:24;;;;;;;6.75;3.92;;;;;;;;;;4956954;29;20031;-83
2023/03/24 13:52:50;;;;;;;18.85;6.75;;;;;;;;;;4956718;28;20090;-83
2023/03/24 13:55:23;;;;;;;10.30;4.90;;;;;;;;;;4957250;29;20063;-83
2023/03/24 13:57:56;;;;;;;8.07;4.13;;;;;;;;;;4957764;28;20047;-83
2023/03/24 14:00:24;;;;;;;7.78;3.33;;;;;;;;;;4961009;28;20070;-83
2023/03/24 14:02:51;;;;;;;6.82;3.53;;;;;;;;;;4961043;29;20497;-83
2023/03/24 14:05:23;;;;;;;10.00;4.18;;;;;;;;;;4945403;28;20477;-83
2023/03/24 14:07:50;;;;;;;12.10;3.67;;;;;;;;;;5021394;28;20045;-83
2023/03/24 14:10:17;;;;;;;7.72;4.88;;;;;;;;;;5021305;28;20025;-84
2023/03/24 14:12:56;;;;;;;6.30;4.03;;;;;;;;;;5021200;28;20022;-84
2023/03/24 14:15:29;;;;;;;7.25;4.07;;;;;;;;;;5019936;28;20307;-83
2023/03/24 14:17:56;;;;;;;11.18;5.82;;;;;;;;;;5033371;28;20036;-83
2023/03/24 14:20:33;;;;;;;7.28;4.40;;;;;;;;;;5039728;28;20034;-83
2023/03/24 14:23:00;;;;;;;8.88;4.07;;;;;;;;;;5040964;28;20038;-84
2023/03/24 14:25:28;;;;;;;6.55;3.58;;;;;;;;;;5040484;28;20124;-83
2023/03/24 14:28:14;;;;;;;5.75;3.63;;;;;;;;;;5039330;28;20404;-83
2023/03/24 14:30:57;;;;;;;7.03;3.47;;;;;;;;;;5039389;28;20040;-82
2023/03/24 14:33:24;;;;;;;7.18;5.35;;;;;;;;;;5040088;28;20327;-83
2023/03/24 14:35:57;;;;;;;10.95;4.60;;;;;;;;;;5040216;28;20033;-83
2023/03/24 14:38:24;;;;;;;5.88;3.08;;;;;;;;;;5040360;28;20029;-84
2023/03/24 14:40:55;;;;;;;7.10;3.20;;;;;;;;;;5039102;28;20029;-83
2023/03/24 14:43:23;;;;;;;7.30;3.30;;;;;;;;;;5039127;28;20033;-83
2023/03/24 14:46:00;;;;;;;6.57;3.05;;;;;;;;;;5037091;28;20030;-83
2023/03/24 14:48:29;;;;;;;13.25;5.43;;;;;;;;;;5038430;28;20041;-83
2023/03/24 14:50:58;;;;;;;15.10;4.63;;;;;;;;;;5040119;28;20033;-83
2023/03/24 14:53:24;;;;;;;6.60;3.80;;;;;;;;;;5040001;28;20033;-83
2023/03/24 14:55:50;;;;;;;8.73;4.68;;;;;;;;;;5038943;28;20036;-83
2023/03/24 14:58:19;;;;;;;10.30;4.10;;;;;;;;;;5039896;28;20315;-83
2023/03/24 15:00:50;;;;;;;8.93;2.92;;;;;;;;;;5040024;28;20022;-83
2023/03/24 15:03:38;;;;;;;23.38;4.65;;;;;;;;;;5039706;28;20063;-82
2023/03/24 15:06:26;;;;;;;12.75;3.60;;;;;;;;;;5038650;28;20386;-83
2023/03/24 15:09:03;;;;;;;9.07;3.58;;;;;;;;;;5038274;28;20037;-82
2023/03/24 15:11:31;;;;;;;11.25;3.67;;;;;;;;;;5037960;28;20030;-83
2023/03/24 15:13:59;;;;;;;6.60;3.72;;;;;;;;;;5039581;28;20032;-82
2023/03/24 15:16:27;;;;;;;8.73;4.20;;;;;;;;;;5038540;28;20057;-81
2023/03/24 15:19:13;;;;;;;13.68;5.55;;;;;;;;;;5039330;28;20037;-83
2023/03/24 15:21:41;;;;;;;13.40;5.10;;;;;;;;;;5017599;28;20038;-82
2023/03/24 15:24:22;;;;;;;8.20;3.90;;;;;;;;;;5017656;28;20597;-82
2023/03/24 15:26:48;;;;;;;15.60;5.88;;;;;;;;;;5017740;28;20121;-82